• Join FlightAware (Why Join?)
  • Login
  • US Flag 
02:42AM EDT


 

Airport Tracker/Info


-or-


 

Live Flight TrackerFlight Track Log ✈ VH-FGR ✈ 20-Aug-2013 ✈ YAMT - YUMU

Flight Track Log - Related Links

Times and Time Zones

All times are in EDT time to prevent confusion due to time zone crossing. See the VH-FGR flight status page for this flight to view local times or setup timezone preferences in your user account.

Time Position Orientation Groundspeed Altitude Reporting Facility
EDT Latitude Longitude Course Direction KTS MPH feet Rate Location/Type
07:47AM -26.2439 131.5160 117° Southeast  Level Aus ATC (Calculated)
07:48AM -26.2743 131.5814 117° Southeast  Level Aus ATC (Calculated)
07:50AM -26.3033 131.6437 117° Southeast  Level FlightAware Approximate
07:50AM -26.3276 131.6959 117° Southeast  Level Aus ATC (Calculated)
07:51AM -26.3674 131.7818 117° Southeast  Level Aus ATC (Calculated)
07:53AM -26.3963 131.8442 117° Southeast  Level FlightAware Approximate
07:54AM -26.4138 131.8820 117° Southeast  Level FlightAware Approximate
07:55AM -26.4312 131.9198 117° Southeast  Level FlightAware Approximate
07:56AM -26.4487 131.9577 117° Southeast  Level FlightAware Approximate
07:57AM -26.4662 131.9955 117° Southeast  Level FlightAware Approximate
07:58AM -26.4836 132.0334 117° Southeast  Level FlightAware Approximate
07:59AM -26.5011 132.0712 117° Southeast  Level FlightAware Approximate
08:00AM -26.4836 132.0334 297° West  Level FlightAware Approximate
08:01AM -26.5011 132.0712 117° Southeast  Level FlightAware Approximate
08:02AM -26.4836 132.0334 297° West  Level FlightAware Approximate
08:03AM -26.5011 132.0712 117° Southeast  Level FlightAware Approximate
08:04AM -26.4836 132.0334 297° West  Level FlightAware Approximate
08:05AM -26.5011 132.0712 117° Southeast  Level FlightAware Approximate
08:06AM -26.4836 132.0334 297° West  Level FlightAware Approximate
08:07AM -26.5011 132.0712 117° Southeast  Level FlightAware Approximate
08:08AM -26.4836 132.0334 297° West  Level FlightAware Approximate
08:09AM -26.5011 132.0712 117° Southeast  Level FlightAware Approximate